createdAt,value
2022-12-18T00:01:06.833Z,18.33
2022-12-18T00:03:37.022Z,17.23
2022-12-18T00:06:03.804Z,17.88
2022-12-18T00:08:30.197Z,19.75
2022-12-18T00:10:59.798Z,18.83
2022-12-18T00:13:28.186Z,19.92
2022-12-18T00:15:54.734Z,20.00
2022-12-18T00:18:23.231Z,19.50
2022-12-18T00:20:49.643Z,21.10
2022-12-18T00:23:16.108Z,19.42
2022-12-18T00:25:42.543Z,19.73
2022-12-18T00:28:08.990Z,18.73
2022-12-18T00:30:35.421Z,19.38
2022-12-18T00:33:01.851Z,20.30
2022-12-18T00:35:28.614Z,20.48
2022-12-18T00:37:55.028Z,19.75
2022-12-18T00:40:21.305Z,19.30
2022-12-18T00:42:56.794Z,18.58
2022-12-18T00:45:24.074Z,20.05
2022-12-18T00:47:50.511Z,18.38
2022-12-18T00:50:16.872Z,18.88
2022-12-18T00:52:43.659Z,18.45
2022-12-18T00:55:10.408Z,18.35
2022-12-18T00:57:36.790Z,19.10
2022-12-18T01:00:04.809Z,18.35
2022-12-18T01:02:31.497Z,18.65
2022-12-18T01:04:58.002Z,18.65
2022-12-18T01:07:24.521Z,19.20
2022-12-18T01:09:50.956Z,18.33
2022-12-18T01:12:17.318Z,18.75
2022-12-18T01:14:43.653Z,18.80
2022-12-18T01:17:09.996Z,17.10
2022-12-18T01:19:36.645Z,17.83
2022-12-18T01:22:03.240Z,19.13
2022-12-18T01:24:29.764Z,18.23
2022-12-18T01:26:58.212Z,18.52
2022-12-18T01:29:24.759Z,17.90
2022-12-18T01:31:51.251Z,20.30
2022-12-18T01:34:17.743Z,18.73
2022-12-18T01:36:44.205Z,18.65
2022-12-18T01:39:12.189Z,18.77
2022-12-18T01:41:57.043Z,17.15
2022-12-18T01:44:41.883Z,17.90
2022-12-18T01:47:08.296Z,18.17
2022-12-18T01:49:34.772Z,18.70
2022-12-18T01:52:01.248Z,18.70
2022-12-18T01:54:27.644Z,18.55
2022-12-18T01:56:54.065Z,18.45
2022-12-18T01:59:20.516Z,18.42
2022-12-18T02:01:46.968Z,17.98
2022-12-18T02:04:19.795Z,18.02
2022-12-18T02:06:46.462Z,16.90
2022-12-18T02:09:15.879Z,17.88
2022-12-18T02:11:57.605Z,17.50
2022-12-18T02:14:32.863Z,17.70
2022-12-18T02:17:05.884Z,16.55
2022-12-18T02:19:50.900Z,17.42
2022-12-18T02:22:36.081Z,16.50
2022-12-18T02:25:22.712Z,16.63
2022-12-18T02:27:50.195Z,16.02
2022-12-18T02:30:16.686Z,17.02
2022-12-18T02:32:46.001Z,18.73
2022-12-18T02:35:14.769Z,17.55
2022-12-18T02:37:43.160Z,15.55
2022-12-18T02:40:10.626Z,16.77
2022-12-18T02:42:37.160Z,17.55
2022-12-18T02:45:03.612Z,17.45
2022-12-18T02:47:32.007Z,16.90
2022-12-18T02:49:58.340Z,17.80
2022-12-18T02:52:46.928Z,16.90
2022-12-18T02:55:32.004Z,18.25
2022-12-18T02:58:16.704Z,18.33
2022-12-18T03:00:47.283Z,16.58
2022-12-18T03:03:28.246Z,15.90
2022-12-18T03:08:31.458Z,15.82
2022-12-18T03:11:05.967Z,16.42
2022-12-18T03:13:47.284Z,16.67
2022-12-18T03:16:18.293Z,14.98
2022-12-18T03:21:11.926Z,16.65
2022-12-18T03:23:41.643Z,16.33
2022-12-18T03:26:10.364Z,15.77
2022-12-18T03:28:39.781Z,16.63
2022-12-18T03:31:08.096Z,15.10
2022-12-18T03:33:37.875Z,17.48
2022-12-18T03:36:04.867Z,16.57
2022-12-18T03:38:31.592Z,17.40
2022-12-18T03:41:02.016Z,16.40
2022-12-18T03:43:28.566Z,16.17
2022-12-18T03:46:00.283Z,16.27
2022-12-18T03:48:26.646Z,14.70
2022-12-18T03:50:56.232Z,15.15
2022-12-18T03:53:41.824Z,14.18
2022-12-18T03:56:09.943Z,15.70
2022-12-18T03:58:38.383Z,14.93
2022-12-18T04:01:10.204Z,15.95
2022-12-18T04:03:36.998Z,16.23
2022-12-18T04:06:03.933Z,15.13
2022-12-18T04:08:31.976Z,14.90
2022-12-18T04:10:58.376Z,14.57
2022-12-18T04:13:25.942Z,16.20
2022-12-18T04:15:52.506Z,15.35
2022-12-18T04:18:19.515Z,15.15
2022-12-18T04:20:46.189Z,15.30
2022-12-18T04:23:12.737Z,14.32
2022-12-18T04:25:39.159Z,14.25
2022-12-18T04:28:06.129Z,14.98
2022-12-18T04:30:32.546Z,14.57
2022-12-18T04:32:58.916Z,14.80
2022-12-18T04:35:25.294Z,14.95
2022-12-18T04:37:51.632Z,14.27
2022-12-18T04:40:18.068Z,13.65
2022-12-18T04:42:44.497Z,13.13
2022-12-18T04:45:11.058Z,14.07
2022-12-18T04:47:37.671Z,12.15
2022-12-18T04:50:04.490Z,13.77
2022-12-18T04:52:31.985Z,12.65
2022-12-18T04:54:58.494Z,12.95
2022-12-18T04:57:24.942Z,13.05
2022-12-18T04:59:51.285Z,13.38
2022-12-18T05:02:17.761Z,12.80
2022-12-18T05:04:44.224Z,13.02
2022-12-18T05:07:10.623Z,12.77
2022-12-18T05:09:37.077Z,13.82
2022-12-18T05:12:03.552Z,13.60
2022-12-18T05:14:30.454Z,12.65
2022-12-18T05:17:00.655Z,12.15
2022-12-18T05:19:27.387Z,12.73
2022-12-18T05:21:53.658Z,12.15
2022-12-18T05:24:20.116Z,12.48
2022-12-18T05:26:46.497Z,12.60
2022-12-18T05:29:13.266Z,13.25
2022-12-18T05:31:40.482Z,11.63
2022-12-18T05:34:09.563Z,11.77
2022-12-18T05:36:37.181Z,11.52
2022-12-18T05:39:03.776Z,12.07
2022-12-18T05:41:30.896Z,10.77
2022-12-18T05:43:57.476Z,10.93
2022-12-18T05:46:23.838Z,11.63
2022-12-18T05:48:51.236Z,11.13
2022-12-18T05:51:18.710Z,11.15
2022-12-18T05:53:45.220Z,10.25
2022-12-18T05:56:13.025Z,10.73
2022-12-18T05:58:39.542Z,10.70
2022-12-18T06:01:13.156Z,11.00
2022-12-18T06:03:39.968Z,10.52
2022-12-18T06:06:20.453Z,11.50
2022-12-18T06:08:47.474Z,11.90
2022-12-18T06:11:14.506Z,10.45
2022-12-18T06:13:41.346Z,12.18
2022-12-18T06:16:09.211Z,11.40
2022-12-18T06:18:35.596Z,11.57
2022-12-18T06:21:01.956Z,11.40
2022-12-18T06:23:28.423Z,11.70
2022-12-18T06:25:54.903Z,10.60
2022-12-18T06:28:21.550Z,10.95
2022-12-18T06:30:49.201Z,11.55
2022-12-18T06:33:15.975Z,11.70
2022-12-18T06:35:42.504Z,11.90
2022-12-18T06:38:08.877Z,11.25
2022-12-18T06:40:35.243Z,11.63
2022-12-18T06:43:01.577Z,11.65
2022-12-18T06:45:27.993Z,10.52
2022-12-18T06:47:54.748Z,12.00
2022-12-18T06:50:21.136Z,11.20
2022-12-18T06:52:47.411Z,10.98
2022-12-18T06:55:13.757Z,10.20
2022-12-18T06:57:40.072Z,10.85
2022-12-18T07:00:06.898Z,11.48
2022-12-18T07:02:33.692Z,10.23
2022-12-18T07:05:00.127Z,10.20
2022-12-18T07:07:26.553Z,11.45
2022-12-18T07:09:52.962Z,11.70
2022-12-18T07:12:19.540Z,11.18
2022-12-18T07:14:45.891Z,10.70
2022-12-18T07:17:12.282Z,11.35
2022-12-18T07:19:38.676Z,11.13
2022-12-18T07:22:04.971Z,11.77
2022-12-18T07:24:33.702Z,11.18
2022-12-18T07:27:00.575Z,10.45
2022-12-18T07:29:26.931Z,11.45
2022-12-18T07:31:53.319Z,10.32
2022-12-18T07:34:19.751Z,10.55
2022-12-18T07:36:46.088Z,11.40
2022-12-18T07:39:12.897Z,10.38
2022-12-18T07:41:43.748Z,10.85
2022-12-18T07:44:13.621Z,11.07
2022-12-18T07:46:40.449Z,13.57
2022-12-18T07:49:06.845Z,12.35
2022-12-18T07:51:33.148Z,11.98
2022-12-18T07:53:59.536Z,11.85
2022-12-18T07:56:28.556Z,11.63
2022-12-18T07:58:55.596Z,11.20
2022-12-18T08:01:22.133Z,11.85
2022-12-18T08:03:48.585Z,11.13
2022-12-18T08:06:16.548Z,10.80
2022-12-18T08:08:43.279Z,9.55
2022-12-18T08:11:09.752Z,11.18
2022-12-18T08:13:36.238Z,9.88
2022-12-18T08:16:04.310Z,10.52
2022-12-18T08:18:32.719Z,11.65
2022-12-18T08:20:59.114Z,11.18
2022-12-18T08:23:28.623Z,11.45
2022-12-18T08:25:55.203Z,10.73
2022-12-18T08:28:21.693Z,11.80
2022-12-18T08:30:52.188Z,10.77
2022-12-18T08:33:18.510Z,11.35
2022-12-18T08:35:46.127Z,11.88
2022-12-18T08:38:12.819Z,11.43
2022-12-18T08:40:39.150Z,11.77
2022-12-18T08:43:24.245Z,12.07
2022-12-18T08:45:50.698Z,10.98
2022-12-18T08:48:22.033Z,10.93
2022-12-18T08:50:58.886Z,11.90
2022-12-18T08:53:25.158Z,12.38
2022-12-18T08:55:51.754Z,11.98
2022-12-18T08:58:18.063Z,12.48
2022-12-18T09:00:44.392Z,10.45
2022-12-18T09:03:17.689Z,10.82
2022-12-18T09:05:44.028Z,12.60
2022-12-18T09:08:10.340Z,11.60
2022-12-18T09:10:43.562Z,12.48
2022-12-18T09:13:10.651Z,11.70
2022-12-18T09:15:41.583Z,11.30
2022-12-18T09:20:34.612Z,10.02
2022-12-18T09:23:00.969Z,10.90
2022-12-18T09:25:33.053Z,12.43
2022-12-18T09:28:15.702Z,10.55
2022-12-18T09:30:43.461Z,11.18
2022-12-18T09:33:10.046Z,11.75
2022-12-18T09:35:37.552Z,10.40
2022-12-18T09:38:03.888Z,10.57
2022-12-18T09:40:33.703Z,11.60
2022-12-18T09:43:01.389Z,11.20
2022-12-18T09:45:28.229Z,11.70
2022-12-18T09:47:55.327Z,11.38
2022-12-18T09:50:27.940Z,9.88
2022-12-18T09:52:55.903Z,11.15
2022-12-18T09:55:33.596Z,11.30
2022-12-18T09:58:08.466Z,11.95
2022-12-18T10:00:35.236Z,10.77
2022-12-18T10:03:16.361Z,10.20
2022-12-18T10:06:01.790Z,11.95
2022-12-18T10:08:46.891Z,10.38
2022-12-18T10:11:22.202Z,10.57
2022-12-18T10:13:53.589Z,10.45
2022-12-18T10:16:19.877Z,12.02
2022-12-18T10:18:58.785Z,10.90
2022-12-18T10:21:29.212Z,11.75
2022-12-18T10:24:14.231Z,11.68
2022-12-18T10:26:41.899Z,9.43
2022-12-18T10:29:15.803Z,9.90
2022-12-18T10:31:42.301Z,9.63
2022-12-18T10:34:12.497Z,10.02
2022-12-18T10:36:39.191Z,10.65
2022-12-18T10:39:23.377Z,9.85
2022-12-18T10:41:50.792Z,10.20
2022-12-18T10:44:21.769Z,11.50
2022-12-18T10:49:27.817Z,10.32
2022-12-18T10:52:13.136Z,11.25
2022-12-18T10:54:39.779Z,10.98
2022-12-18T10:57:29.172Z,11.02
2022-12-18T10:59:56.531Z,10.95
2022-12-18T11:02:28.337Z,10.50
2022-12-18T11:04:54.817Z,10.20
2022-12-18T11:07:21.123Z,9.52
2022-12-18T11:10:00.308Z,9.75
2022-12-18T11:12:29.408Z,8.10
2022-12-18T11:14:57.405Z,8.70
2022-12-18T11:17:29.044Z,9.63
2022-12-18T11:19:56.457Z,9.13
2022-12-18T11:22:28.525Z,10.32
2022-12-18T11:25:30.688Z,12.73
2022-12-18T11:27:53.530Z,10.70
2022-12-18T11:30:24.457Z,11.35
2022-12-18T11:35:26.366Z,26.65
2022-12-18T11:37:59.583Z,11.27
2022-12-18T11:40:39.336Z,11.40
2022-12-18T11:43:07.287Z,9.65
2022-12-18T11:45:40.665Z,10.00
2022-12-18T11:48:07.068Z,10.07
2022-12-18T11:50:49.551Z,9.48
2022-12-18T11:53:15.894Z,9.25
2022-12-18T11:55:48.152Z,9.95
2022-12-18T11:58:31.319Z,9.73
2022-12-18T12:01:24.351Z,10.05
2022-12-18T12:03:59.967Z,10.13
2022-12-18T12:06:39.616Z,10.30
2022-12-18T12:09:11.839Z,8.48
2022-12-18T12:11:44.339Z,10.52
2022-12-18T12:14:29.248Z,8.70
2022-12-18T12:17:03.063Z,8.25
2022-12-18T12:19:36.940Z,9.07
2022-12-18T12:22:18.504Z,10.30
2022-12-18T12:24:50.931Z,9.07
2022-12-18T12:27:17.228Z,9.60
2022-12-18T12:29:50.522Z,9.80
2022-12-18T12:32:37.099Z,9.35
2022-12-18T12:35:09.828Z,9.95
2022-12-18T12:37:55.496Z,9.25
2022-12-18T12:40:51.188Z,9.38
2022-12-18T12:43:16.113Z,9.93
2022-12-18T12:46:01.085Z,9.55
2022-12-18T12:48:46.030Z,10.48
2022-12-18T12:51:16.667Z,9.80
2022-12-18T12:53:43.349Z,10.23
2022-12-18T12:56:12.748Z,10.73
2022-12-18T12:58:42.726Z,10.13
2022-12-18T13:01:32.949Z,10.50
2022-12-18T13:04:18.742Z,8.52
2022-12-18T13:06:54.864Z,10.52
2022-12-18T13:09:21.511Z,13.18
2022-12-18T13:12:06.914Z,11.52
2022-12-18T13:14:36.143Z,11.02
2022-12-18T13:17:26.115Z,10.07
2022-12-18T13:19:53.487Z,9.38
2022-12-18T13:22:24.056Z,11.02
2022-12-18T13:24:50.692Z,11.02
2022-12-18T13:27:36.650Z,9.98
2022-12-18T13:30:03.095Z,9.98
2022-12-18T13:32:29.602Z,9.48
2022-12-18T13:35:28.132Z,9.07
2022-12-18T13:37:55.541Z,10.50
2022-12-18T13:40:42.510Z,9.73
2022-12-18T13:43:21.223Z,9.93
2022-12-18T13:45:59.493Z,10.60
2022-12-18T13:48:26.939Z,10.10
2022-12-18T13:50:59.256Z,10.07
2022-12-18T13:53:27.387Z,9.18
2022-12-18T13:55:54.119Z,9.75
2022-12-18T13:58:20.420Z,9.38
2022-12-18T14:00:47.608Z,10.10
2022-12-18T14:03:27.267Z,9.40
2022-12-18T14:05:55.416Z,10.38
2022-12-18T14:08:21.929Z,10.68
2022-12-18T14:10:50.422Z,9.82
2022-12-18T14:13:20.590Z,9.43
2022-12-18T14:15:48.561Z,9.70
2022-12-18T14:18:24.061Z,9.98
2022-12-18T14:20:53.101Z,9.75
2022-12-18T14:23:30.368Z,9.50
2022-12-18T14:25:59.657Z,10.25
2022-12-18T14:28:30.418Z,10.20
2022-12-18T14:30:57.278Z,9.88
2022-12-18T14:33:25.325Z,10.25
2022-12-18T14:35:57.668Z,9.93
2022-12-18T14:38:30.547Z,12.98
2022-12-18T14:41:26.461Z,18.45
2022-12-18T14:43:54.051Z,10.27
2022-12-18T14:46:26.434Z,14.82
2022-12-18T14:48:53.107Z,10.48
2022-12-18T14:51:26.435Z,11.82
2022-12-18T14:53:57.024Z,11.57
2022-12-18T14:56:25.188Z,10.68
2022-12-18T14:58:53.854Z,12.13
2022-12-18T15:01:21.816Z,12.57
2022-12-18T15:03:48.300Z,11.15
2022-12-18T15:06:32.621Z,11.63
2022-12-18T15:09:00.315Z,16.42
2022-12-18T15:11:41.518Z,16.00
2022-12-18T15:14:26.753Z,11.45
2022-12-18T15:16:54.619Z,15.00
2022-12-18T15:19:22.148Z,13.20
2022-12-18T15:21:48.553Z,11.52
2022-12-18T15:24:19.079Z,13.27
2022-12-18T15:26:45.521Z,12.93
2022-12-18T15:29:20.912Z,11.57
2022-12-18T15:31:58.604Z,10.95
2022-12-18T15:34:26.151Z,12.57
2022-12-18T15:36:53.055Z,10.70
2022-12-18T15:39:19.364Z,10.60
2022-12-18T15:42:05.879Z,10.90
2022-12-18T15:44:32.335Z,14.20
2022-12-18T15:46:58.862Z,10.60
2022-12-18T15:49:25.284Z,11.75
2022-12-18T15:52:00.835Z,11.05
2022-12-18T15:54:45.610Z,11.43
2022-12-18T15:57:23.811Z,11.30
2022-12-18T15:59:50.806Z,11.18
2022-12-18T16:02:18.223Z,10.50
2022-12-18T16:04:45.012Z,10.68
2022-12-18T16:07:15.094Z,15.98
2022-12-18T16:09:45.664Z,13.13
2022-12-18T16:12:29.987Z,16.52
2022-12-18T16:14:56.351Z,22.20
2022-12-18T16:17:22.646Z,17.30
2022-12-18T16:19:49.007Z,14.30
2022-12-18T16:22:18.841Z,13.00
2022-12-18T16:24:45.172Z,14.55
2022-12-18T16:27:11.480Z,11.63
2022-12-18T16:29:37.740Z,15.73
2022-12-18T16:32:04.170Z,10.93
2022-12-18T16:34:35.284Z,12.13
2022-12-18T16:37:05.778Z,11.43
2022-12-18T16:39:34.196Z,14.23
2022-12-18T16:42:01.038Z,12.57
2022-12-18T16:44:31.182Z,12.82
2022-12-18T16:47:02.541Z,13.55
2022-12-18T16:49:29.469Z,10.25
2022-12-18T16:51:55.763Z,11.88
2022-12-18T16:54:22.056Z,11.75
2022-12-18T16:56:50.386Z,10.95
2022-12-18T16:59:16.691Z,11.40
2022-12-18T17:01:44.362Z,13.60
2022-12-18T17:04:10.820Z,12.23
2022-12-18T17:06:40.248Z,11.50
2022-12-18T17:09:07.979Z,11.85
2022-12-18T17:11:34.788Z,12.82
2022-12-18T17:14:06.226Z,12.77
2022-12-18T17:16:32.683Z,12.55
2022-12-18T17:18:59.791Z,14.07
2022-12-18T17:21:26.085Z,14.60
2022-12-18T17:23:52.397Z,15.40
2022-12-18T17:26:18.661Z,14.45
2022-12-18T17:28:45.011Z,13.18
2022-12-18T17:31:29.910Z,13.13
2022-12-18T17:33:56.808Z,13.80
2022-12-18T17:36:23.357Z,12.80
2022-12-18T17:38:50.830Z,12.40
2022-12-18T17:41:17.153Z,13.98
2022-12-18T17:43:45.895Z,12.63
2022-12-18T17:46:13.696Z,13.75
2022-12-18T17:48:40.080Z,13.25
2022-12-18T17:51:07.291Z,12.88
2022-12-18T17:53:34.582Z,13.65
2022-12-18T17:56:01.775Z,12.15
2022-12-18T17:58:28.812Z,12.63
2022-12-18T18:00:55.584Z,12.77
2022-12-18T18:03:22.109Z,11.75
2022-12-18T18:05:48.849Z,12.15
2022-12-18T18:08:15.308Z,14.20
2022-12-18T18:10:41.660Z,13.35
2022-12-18T18:13:39.690Z,12.57
2022-12-18T18:16:09.444Z,12.73
2022-12-18T18:18:36.172Z,13.00
2022-12-18T18:21:06.950Z,11.32
2022-12-18T18:23:34.438Z,12.07
2022-12-18T18:26:04.149Z,12.00
2022-12-18T18:28:30.613Z,13.40
2022-12-18T18:30:56.944Z,13.05
2022-12-18T18:33:23.288Z,12.07
2022-12-18T18:35:54.170Z,15.80
2022-12-18T18:38:21.370Z,13.68
2022-12-18T18:40:47.763Z,13.30
2022-12-18T18:43:14.164Z,14.05
2022-12-18T18:45:40.461Z,12.82
2022-12-18T18:48:08.546Z,15.25
2022-12-18T18:50:35.228Z,12.40
2022-12-18T18:53:01.748Z,13.38
2022-12-18T18:55:29.066Z,13.40
2022-12-18T18:57:55.399Z,12.35
2022-12-18T19:00:22.019Z,13.38
2022-12-18T19:02:49.493Z,12.48
2022-12-18T19:05:16.485Z,13.40
2022-12-18T19:07:43.040Z,13.18
2022-12-18T19:10:10.509Z,12.95
2022-12-18T19:12:55.861Z,13.95
2022-12-18T19:15:22.321Z,14.40
2022-12-18T19:17:49.008Z,13.85
2022-12-18T19:20:15.712Z,14.50
2022-12-18T19:22:42.514Z,15.90
2022-12-18T19:25:09.830Z,14.25
2022-12-18T19:27:38.900Z,13.25
2022-12-18T19:30:05.722Z,14.05
2022-12-18T19:32:32.149Z,14.07
2022-12-18T19:34:59.389Z,15.27
2022-12-18T19:37:27.147Z,13.40
2022-12-18T19:39:54.881Z,12.23
2022-12-18T19:42:28.192Z,15.52
2022-12-18T19:44:56.375Z,14.02
2022-12-18T19:47:22.740Z,14.05
2022-12-18T19:49:49.161Z,14.07
2022-12-18T19:52:16.376Z,14.27
2022-12-18T19:54:42.803Z,13.18
2022-12-18T19:57:11.461Z,13.88
2022-12-18T19:59:39.048Z,13.38
2022-12-18T20:02:08.685Z,14.50
2022-12-18T20:04:35.123Z,12.82
2022-12-18T20:07:01.642Z,14.68
2022-12-18T20:09:28.305Z,14.98
2022-12-18T20:11:55.089Z,14.68
2022-12-18T20:14:23.495Z,16.55
2022-12-18T20:16:50.859Z,16.15
2022-12-18T20:19:17.951Z,16.00
2022-12-18T20:21:44.674Z,16.20
2022-12-18T20:24:11.376Z,14.35
2022-12-18T20:26:38.025Z,15.43
2022-12-18T20:29:04.372Z,15.32
2022-12-18T20:31:30.895Z,14.23
2022-12-18T20:34:00.319Z,14.15
2022-12-18T20:36:29.505Z,14.88
2022-12-18T20:39:01.499Z,14.40
2022-12-18T20:41:37.446Z,15.25
2022-12-18T20:44:05.485Z,15.68
2022-12-18T20:46:33.800Z,14.73
2022-12-18T20:49:00.423Z,15.55
2022-12-18T20:51:28.211Z,14.80
2022-12-18T20:53:54.725Z,15.48
2022-12-18T20:56:22.092Z,15.80
2022-12-18T20:58:54.850Z,14.93
2022-12-18T21:01:22.520Z,14.98
2022-12-18T21:03:49.491Z,16.70
2022-12-18T21:06:17.287Z,15.82
2022-12-18T21:08:43.870Z,16.73
2022-12-18T21:11:34.958Z,15.20
2022-12-18T21:16:27.703Z,14.77
2022-12-18T21:18:55.046Z,15.40
2022-12-18T21:21:26.212Z,15.88
2022-12-18T21:23:53.471Z,15.38
2022-12-18T21:26:24.472Z,15.23
2022-12-18T21:28:58.073Z,15.98
2022-12-18T21:31:25.303Z,17.25
2022-12-18T21:33:51.893Z,17.15
2022-12-18T21:36:20.484Z,15.52
2022-12-18T21:38:46.872Z,16.67
2022-12-18T21:41:41.855Z,16.38
2022-12-18T21:44:10.704Z,16.92
2022-12-18T21:46:38.378Z,15.32
2022-12-18T21:49:05.788Z,16.17
2022-12-18T21:51:32.819Z,16.00
2022-12-18T21:53:59.391Z,16.65
2022-12-18T21:56:42.218Z,16.42
2022-12-18T21:59:08.687Z,16.38
2022-12-18T22:01:37.467Z,17.02
2022-12-18T22:04:04.245Z,15.88
2022-12-18T22:06:30.913Z,16.70
2022-12-18T22:08:58.051Z,15.15
2022-12-18T22:11:24.702Z,17.00
2022-12-18T22:13:51.082Z,16.27
2022-12-18T22:16:17.499Z,17.98
2022-12-18T22:18:43.841Z,18.48
2022-12-18T22:21:25.492Z,17.38
2022-12-18T22:24:02.942Z,17.08
2022-12-18T22:26:33.835Z,16.33
2022-12-18T22:29:21.543Z,17.10
2022-12-18T22:31:47.923Z,16.23
2022-12-18T22:34:14.372Z,17.33
2022-12-18T22:36:47.924Z,17.25
2022-12-18T22:39:15.671Z,16.73
2022-12-18T22:41:42.494Z,16.38
2022-12-18T22:44:08.947Z,16.88
2022-12-18T22:46:39.010Z,16.25
2022-12-18T22:49:05.896Z,16.80
2022-12-18T22:51:32.339Z,17.60
2022-12-18T22:53:58.911Z,17.95
2022-12-18T22:56:25.402Z,16.60
2022-12-18T22:58:51.937Z,18.10
2022-12-18T23:01:22.830Z,17.95
2022-12-18T23:03:49.913Z,18.02
2022-12-18T23:06:16.562Z,16.20
2022-12-18T23:08:43.532Z,17.38
2022-12-18T23:11:10.340Z,17.83
2022-12-18T23:13:37.146Z,17.13
2022-12-18T23:16:07.524Z,17.30
2022-12-18T23:18:34.216Z,17.60
2022-12-18T23:21:04.568Z,17.65
2022-12-18T23:23:33.747Z,17.77
2022-12-18T23:26:00.991Z,18.77
2022-12-18T23:28:27.428Z,17.23
2022-12-18T23:31:06.158Z,17.90
2022-12-18T23:33:32.868Z,18.17
2022-12-18T23:36:00.692Z,18.60
2022-12-18T23:38:27.319Z,18.02
2022-12-18T23:40:54.854Z,15.93
2022-12-18T23:43:23.406Z,19.20
2022-12-18T23:45:55.494Z,18.58
2022-12-18T23:48:22.790Z,17.85
2022-12-18T23:50:49.169Z,19.83
2022-12-18T23:53:15.503Z,19.05
2022-12-18T23:55:42.827Z,19.85
2022-12-18T23:58:15.770Z,19.42
